Time;durP1;ratioP1;P1;durP2;ratioP2;P2;SDS_P1;SDS_P2;PMS_P1;PMS_P2;Temp;Humidity;BMP_temperature;BMP_pressure;BME280_temperature;BME280_humidity;BME280_pressure;Samples;Min_cycle;Max_cycle;Signal;HPM_P1;HPM_P2
2021/04/29 00:00:22;;;;;;;12.98;7.62;;;;;;;3.81;77.41;100552.90;1686685;84;21210;-78
2021/04/29 00:03:28;;;;;;;9.93;6.95;;;;;;;3.79;77.68;100553.53;1703170;84;21343;-78
2021/04/29 00:06:34;;;;;;;16.82;7.83;;;;;;;3.75;77.72;100552.92;1703266;84;21304;-79
2021/04/29 00:09:42;;;;;;;11.08;6.75;;;;;;;3.71;77.89;100550.09;1703172;84;21154;-79
2021/04/29 00:12:47;;;;;;;12.20;6.78;;;;;;;3.70;77.95;100548.38;1703168;84;21830;-79
2021/04/29 00:15:54;;;;;;;9.35;6.55;;;;;;;3.70;78.07;100549.73;1701658;84;21557;-79
2021/04/29 00:19:00;;;;;;;9.43;6.42;;;;;;;3.70;78.05;100546.17;1710917;84;21317;-79
2021/04/29 00:22:06;;;;;;;9.25;6.15;;;;;;;3.70;78.01;100552.44;1720751;82;21312;-79
2021/04/29 00:25:13;;;;;;;12.78;6.95;;;;;;;3.73;77.85;100551.34;1740536;82;21348;-79
2021/04/29 00:28:18;;;;;;;8.98;6.35;;;;;;;3.75;77.72;100550.21;1740495;82;21313;-79
2021/04/29 00:31:24;;;;;;;11.45;6.83;;;;;;;3.77;77.55;100557.73;1715645;83;21797;-78
2021/04/29 00:34:30;;;;;;;10.63;6.90;;;;;;;3.78;77.47;100552.67;1696647;84;21322;-78
2021/04/29 00:37:36;;;;;;;15.95;7.70;;;;;;;3.76;77.48;100551.06;1696643;84;21351;-79
2021/04/29 00:40:42;;;;;;;11.75;7.17;;;;;;;3.74;77.53;100549.85;1696666;84;21307;-79
2021/04/29 00:43:48;;;;;;;14.43;8.33;;;;;;;3.73;77.76;100549.99;1696694;84;21807;-79
2021/04/29 00:46:53;;;;;;;12.10;8.43;;;;;;;3.70;78.06;100548.38;1678446;84;21300;-79
2021/04/29 00:49:59;;;;;;;15.00;9.08;;;;;;;3.67;78.44;100548.66;1696775;84;21298;-79
2021/04/29 00:53:05;;;;;;;15.63;9.93;;;;;;;3.66;78.76;100550.97;1678514;84;21335;-79
2021/04/29 00:56:10;;;;;;;15.43;8.10;;;;;;;3.65;78.97;100550.61;1696667;84;21290;-79
2021/04/29 00:59:15;;;;;;;13.10;8.85;;;;;;;3.63;79.23;100560.71;1696728;83;21503;-78
2021/04/29 01:02:21;;;;;;;11.75;8.63;;;;;;;3.62;79.39;100555.41;1696593;83;21845;-78
2021/04/29 01:05:33;;;;;;;10.18;7.33;;;;;;;3.60;79.39;100556.89;1696663;84;21302;-79
2021/04/29 01:08:48;;;;;;;16.67;7.92;;;;;;;3.56;79.59;100553.57;1696511;84;21306;-79
2021/04/29 01:11:58;;;;;;;12.60;7.62;;;;;;;3.55;79.74;100551.00;1696670;84;21880;-79
2021/04/29 01:15:04;;;;;;;11.53;7.73;;;;;;;3.56;79.82;100547.30;1696873;84;21319;-79
2021/04/29 01:18:10;;;;;;;11.88;7.45;;;;;;;3.55;79.94;100550.51;1709556;83;21338;-79
2021/04/29 01:21:20;;;;;;;15.25;8.38;;;;;;;3.53;80.04;100537.61;1757409;81;21271;-79
2021/04/29 01:24:28;;;;;;;10.15;6.67;;;;;;;3.52;80.16;100548.53;1757439;81;21334;-79
2021/04/29 01:27:34;;;;;;;12.15;8.50;;;;;;;3.50;80.33;100538.35;1757563;81;21206;-79
2021/04/29 01:30:40;;;;;;;11.25;7.58;;;;;;;3.47;80.40;100542.64;1736574;81;21180;-79
2021/04/29 01:33:45;;;;;;;12.78;7.97;;;;;;;3.44;80.50;100544.27;1757312;81;21203;-79
2021/04/29 01:36:53;;;;;;;14.98;6.53;;;;;;;3.40;80.65;100543.66;1757362;81;21168;-79
2021/04/29 01:39:57;;;;;;;11.75;7.22;;;;;;;3.36;80.71;100544.88;1757422;81;21302;-79
2021/04/29 01:43:04;;;;;;;11.50;7.40;;;;;;;3.35;80.79;100543.66;1757451;81;21314;-79
2021/04/29 01:46:09;;;;;;;13.15;7.70;;;;;;;3.34;80.89;100546.86;1757463;81;21279;-79
2021/04/29 01:49:18;;;;;;;12.82;6.95;;;;;;;3.33;80.93;100547.33;1757469;81;21326;-79
2021/04/29 01:52:23;;;;;;;11.93;8.15;;;;;;;3.31;80.99;100548.45;1757439;81;21777;-79
2021/04/29 01:55:29;;;;;;;13.80;7.25;;;;;;;3.29;80.94;100541.83;1736927;81;21338;-79
2021/04/29 01:58:33;;;;;;;15.75;8.00;;;;;;;3.28;80.87;100545.98;1737921;81;21758;-79
2021/04/29 02:01:38;;;;;;;15.40;7.40;;;;;;;3.25;80.78;100546.25;1757286;81;21880;-79
2021/04/29 02:04:44;;;;;;;10.20;7.05;;;;;;;3.24;80.77;100552.13;1757439;81;21825;-79
2021/04/29 02:07:50;;;;;;;15.23;7.58;;;;;;;3.22;80.72;100538.37;1757355;81;21761;-79
2021/04/29 02:10:59;;;;;;;10.35;7.28;;;;;;;3.18;80.69;100543.16;1757442;81;21346;-79
2021/04/29 02:14:05;;;;;;;12.77;8.00;;;;;;;3.16;80.76;100545.14;1757851;81;21311;-79
2021/04/29 02:17:20;;;;;;;10.38;7.90;;;;;;;3.15;80.69;100552.86;1757491;81;21343;-79
2021/04/29 02:20:26;;;;;;;10.63;7.62;;;;;;;3.15;80.60;100555.56;1736388;81;21317;-79
2021/04/29 02:23:33;;;;;;;13.98;8.55;;;;;;;3.15;80.43;100565.02;1720358;82;21315;-79
2021/04/29 02:26:39;;;;;;;10.68;7.83;;;;;;;3.13;80.34;100568.85;1735093;82;21315;-79
2021/04/29 02:29:46;;;;;;;12.90;7.70;;;;;;;3.10;80.19;100568.59;1720524;82;21287;-79
2021/04/29 02:32:52;;;;;;;12.47;8.93;;;;;;;3.08;80.19;100570.56;1736493;82;21295;-79
2021/04/29 02:35:58;;;;;;;13.58;7.78;;;;;;;3.09;80.17;100581.73;1736624;82;21315;-79
2021/04/29 02:39:05;;;;;;;10.95;7.42;;;;;;;3.12;80.08;100586.05;1696677;84;21343;-79
2021/04/29 02:42:11;;;;;;;14.73;8.00;;;;;;;3.16;79.86;100578.94;1694890;84;21739;-79
2021/04/29 02:45:17;;;;;;;10.98;7.45;;;;;;;3.22;79.66;100582.48;1693405;85;21208;-79
2021/04/29 02:48:23;;;;;;;11.90;6.78;;;;;;;3.33;79.72;100578.92;1693438;85;21216;-79
2021/04/29 02:51:30;;;;;;;17.67;7.83;;;;;;;3.50;79.64;100582.98;1667263;86;21300;-79
2021/04/29 02:54:35;;;;;;;16.57;8.65;;;;;;;3.67;79.18;100579.77;1686186;84;21319;-79
2021/04/29 02:57:39;;;;;;;15.15;7.65;;;;;;;3.90;78.66;100579.70;1695065;84;21337;-79
2021/04/29 03:00:38;;;;;;;15.90;7.50;;;;;;;4.08;77.95;100583.58;1693423;85;21905;-79
2021/04/29 03:03:44;;;;;;;15.70;8.35;;;;;;;4.22;77.20;100587.84;1693406;85;21866;-79
2021/04/29 03:06:51;;;;;;;14.93;8.05;;;;;;;4.40;76.82;100588.15;1667201;86;21221;-79
2021/04/29 03:09:58;;;;;;;15.05;7.80;;;;;;;4.57;76.09;100591.65;1696637;84;21814;-79
2021/04/29 03:13:03;;;;;;;14.90;7.85;;;;;;;4.71;75.55;100597.24;1694854;84;21235;-79
2021/04/29 03:16:08;;;;;;;20.12;8.25;;;;;;;4.81;75.05;100599.02;1693420;85;21261;-79
2021/04/29 03:19:13;;;;;;;21.25;8.28;;;;;;;4.94;74.61;100593.88;1694093;83;21339;-79
2021/04/29 03:22:19;;;;;;;23.45;9.23;;;;;;;5.07;74.50;100598.09;1763272;81;21841;-79
2021/04/29 03:25:27;;;;;;;39.35;9.93;;;;;;;5.23;74.16;100598.98;1763153;81;21816;-79
2021/04/29 03:28:33;;;;;;;25.37;8.58;;;;;;;5.45;73.82;100606.06;1763013;81;21607;-79
2021/04/29 03:31:40;;;;;;;26.05;8.45;;;;;;;5.69;73.33;100605.73;1745220;81;21781;-79
2021/04/29 03:34:46;;;;;;;22.42;7.22;;;;;;;5.90;72.83;100591.58;1745039;81;21152;-79
2021/04/29 03:37:52;;;;;;;24.02;8.90;;;;;;;6.12;72.05;100592.39;1763244;81;21207;-79
2021/04/29 03:40:57;;;;;;;27.52;8.45;;;;;;;6.28;71.24;100593.18;1763136;81;21841;-79
2021/04/29 03:44:05;;;;;;;28.42;10.60;;;;;;;6.45;70.70;100593.84;1743815;81;21326;-79
2021/04/29 03:47:10;;;;;;;27.52;8.98;;;;;;;6.54;70.24;100589.37;1763114;81;21310;-79
2021/04/29 03:50:17;;;;;;;39.10;9.90;;;;;;;6.60;70.19;100587.47;1743724;81;21184;-79
2021/04/29 03:53:22;;;;;;;28.32;9.05;;;;;;;6.71;69.85;100579.15;1763060;81;21334;-79
2021/04/29 03:56:27;;;;;;;29.87;9.68;;;;;;;6.76;69.71;100580.08;1744434;81;21186;-79
2021/04/29 03:59:34;;;;;;;29.63;10.05;;;;;;;6.82;69.33;100574.93;1763272;81;21832;-79
2021/04/29 04:02:40;;;;;;;26.05;10.13;;;;;;;6.87;69.55;100579.42;1743659;81;21332;-79
2021/04/29 04:05:46;;;;;;;31.52;9.78;;;;;;;6.96;69.74;100584.97;1763101;81;21691;-79
2021/04/29 04:08:53;;;;;;;24.82;9.30;;;;;;;7.02;69.57;100580.33;1744961;81;21856;-79
2021/04/29 04:11:59;;;;;;;28.95;9.38;;;;;;;7.11;69.87;100586.25;1763006;81;21287;-80
2021/04/29 04:15:05;;;;;;;22.13;8.73;;;;;;;7.23;70.33;100589.13;1763081;81;21164;-80
2021/04/29 04:18:11;;;;;;;33.20;8.20;;;;;;;7.44;70.43;100579.41;1762235;81;21840;-80
2021/04/29 04:21:17;;;;;;;18.10;7.87;;;;;;;7.61;70.09;100581.31;1751240;81;21287;-79
2021/04/29 04:24:22;;;;;;;32.88;8.68;;;;;;;7.75;70.30;100578.59;1736563;82;21890;-80
2021/04/29 04:27:28;;;;;;;22.25;8.40;;;;;;;7.87;69.79;100571.94;1718829;82;21315;-80
2021/04/29 04:30:34;;;;;;;25.75;8.03;;;;;;;8.01;69.47;100575.16;1736391;82;21287;-80
2021/04/29 04:33:40;;;;;;;26.30;7.83;;;;;;;8.11;69.54;100575.44;1736384;82;21348;-80
2021/04/29 04:36:46;;;;;;;17.37;7.15;;;;;;;8.30;69.34;100583.13;1736462;82;21301;-80
2021/04/29 04:39:51;;;;;;;19.37;7.67;;;;;;;8.42;69.10;100582.78;1736526;82;21185;-80
2021/04/29 04:42:56;;;;;;;14.70;6.85;;;;;;;8.49;67.75;100581.64;1716595;82;21311;-80
2021/04/29 04:46:03;;;;;;;15.30;7.25;;;;;;;8.60;68.22;100576.44;1720639;82;21804;-80
2021/04/29 04:49:09;;;;;;;24.35;8.13;;;;;;;8.75;68.11;100574.89;1736335;82;21328;-80
2021/04/29 04:52:15;;;;;;;15.75;7.30;;;;;;;8.87;67.29;100579.06;1736448;82;21846;-81
2021/04/29 04:55:20;;;;;;;17.80;7.95;;;;;;;8.97;66.85;100580.32;1736351;82;21220;-80
2021/04/29 04:58:26;;;;;;;14.60;6.40;;;;;;;9.06;66.22;100581.24;1735479;82;21929;-83
2021/04/29 05:01:35;;;;;;;11.03;6.60;;;;;;;9.07;66.73;100574.25;1736542;82;21307;-84
2021/04/29 05:04:40;;;;;;;22.85;7.42;;;;;;;9.15;66.04;100566.64;1736473;82;21335;-84
2021/04/29 05:07:45;;;;;;;16.95;7.62;;;;;;;9.20;66.39;100566.50;1715861;82;21212;-84
2021/04/29 05:10:50;;;;;;;12.85;6.85;;;;;;;9.30;66.75;100569.11;1690357;82;21566;-83
2021/04/29 05:13:56;;;;;;;10.00;6.08;;;;;;;9.43;66.89;100572.27;1703136;82;21692;-84
2021/04/29 05:17:02;;;;;;;14.73;6.50;;;;;;;9.60;67.31;100573.72;1700485;84;21825;-84
2021/04/29 05:20:08;;;;;;;11.10;5.58;;;;;;;9.73;65.53;100576.31;1702172;84;21316;-83
2021/04/29 05:23:16;;;;;;;14.55;6.25;;;;;;;9.81;65.09;100567.30;1715543;82;21279;-84
2021/04/29 05:26:22;;;;;;;14.55;6.47;;;;;;;9.93;64.55;100570.09;1721809;83;21343;-83
2021/04/29 05:29:30;;;;;;;10.43;5.83;;;;;;;10.01;63.74;100566.52;1703558;82;21271;-84
2021/04/29 05:32:36;;;;;;;12.78;6.67;;;;;;;10.02;63.87;100557.80;1716967;83;21805;-83
2021/04/29 05:35:41;;;;;;;14.10;7.05;;;;;;;10.03;64.89;100562.27;1719739;81;21290;-83
2021/04/29 05:38:47;;;;;;;14.63;6.00;;;;;;;10.17;65.43;100563.84;1720720;81;21288;-84
2021/04/29 05:41:53;;;;;;;18.15;6.10;;;;;;;10.35;63.81;100568.32;1726700;81;21367;-84
2021/04/29 05:45:00;;;;;;;15.55;6.00;;;;;;;10.42;62.13;100572.95;1730138;81;21152;-84
2021/04/29 05:48:05;;;;;;;13.55;6.12;;;;;;;10.47;61.16;100573.30;1724577;82;21320;-84
2021/04/29 05:51:10;;;;;;;11.40;5.50;;;;;;;10.59;62.72;100574.36;1700309;83;21256;-84
2021/04/29 05:54:17;;;;;;;12.70;5.95;;;;;;;10.79;61.88;100568.03;1720420;81;21699;-83
2021/04/29 05:57:23;;;;;;;16.10;6.15;;;;;;;10.89;61.69;100568.19;1725691;81;21320;-84
2021/04/29 06:00:29;;;;;;;13.78;5.45;;;;;;;10.90;60.82;100564.93;1698716;83;21820;-84
2021/04/29 06:03:34;;;;;;;16.48;5.92;;;;;;;10.95;59.26;100567.48;1664046;85;21215;-84
2021/04/29 06:06:39;;;;;;;14.20;5.97;;;;;;;11.00;59.17;100567.82;1687310;83;21731;-83
2021/04/29 06:09:44;;;;;;;12.50;5.72;;;;;;;11.08;59.56;100561.49;1700921;83;21204;-84
2021/04/29 06:12:50;;;;;;;17.55;6.08;;;;;;;11.19;59.44;100558.90;1682287;85;21313;-83
2021/04/29 06:15:58;;;;;;;13.83;5.62;;;;;;;11.24;58.76;100561.97;1645763;85;21291;-84
2021/04/29 06:19:06;;;;;;;11.85;5.30;;;;;;;11.30;57.30;100562.66;1691841;84;21802;-84
2021/04/29 06:22:12;;;;;;;9.83;4.45;;;;;;;11.32;57.87;100557.84;1697782;83;21206;-84
2021/04/29 06:25:18;;;;;;;9.03;4.30;;;;;;;11.38;56.59;100551.66;1684017;85;21860;-84
2021/04/29 06:28:23;;;;;;;7.47;3.62;;;;;;;11.46;56.70;100550.27;1678629;83;21300;-84
2021/04/29 06:31:29;;;;;;;7.22;4.33;;;;;;;11.56;56.24;100558.80;1680625;85;21408;-84
2021/04/29 06:34:35;;;;;;;6.28;3.47;;;;;;;11.66;55.92;100563.03;1664145;83;21579;-85
2021/04/29 06:37:42;;;;;;;8.05;4.08;;;;;;;11.77;55.38;100565.92;1688526;83;21958;-85
2021/04/29 06:40:48;;;;;;;8.48;4.60;;;;;;;11.80;53.77;100568.81;1682724;83;21785;-84
2021/04/29 06:43:53;;;;;;;8.23;4.35;;;;;;;11.83;55.40;100583.57;1688980;83;21403;-84
2021/04/29 06:47:00;;;;;;;9.23;4.12;;;;;;;11.87;54.75;100574.81;1684709;85;21147;-84
2021/04/29 06:50:07;;;;;;;6.10;3.85;;;;;;;11.96;55.10;100579.23;1687670;83;21739;-85
2021/04/29 06:53:13;;;;;;;7.72;4.50;;;;;;;12.08;55.06;100576.92;1682762;83;21564;-84
2021/04/29 06:56:19;;;;;;;7.90;4.00;;;;;;;12.20;53.16;100581.50;1693843;83;21687;-85
2021/04/29 06:59:27;;;;;;;4.92;3.67;;;;;;;12.31;54.96;100580.23;1683166;83;21293;-86
2021/04/29 07:02:33;;;;;;;4.80;3.42;;;;;;;12.48;52.51;100592.29;1661037;85;21330;-85
2021/04/29 07:05:39;;;;;;;8.70;3.08;;;;;;;12.54;51.51;100603.90;1662747;85;21283;-85
2021/04/29 07:08:46;;;;;;;4.65;3.12;;;;;;;12.49;52.81;100593.14;1640306;85;21302;-86
2021/04/29 07:11:54;;;;;;;5.10;3.52;;;;;;;12.56;52.33;100598.22;1688074;83;21295;-85
2021/04/29 07:15:00;;;;;;;6.35;3.70;;;;;;;12.63;51.31;100599.22;1661813;85;22497;-85
2021/04/29 07:18:09;;;;;;;5.40;3.20;;;;;;;12.62;52.35;100589.28;1691778;83;21319;-85
2021/04/29 07:21:15;;;;;;;5.58;3.40;;;;;;;12.68;53.64;100587.16;1692077;83;21436;-85
2021/04/29 07:24:21;;;;;;;5.92;3.95;;;;;;;12.77;52.31;100587.96;1663329;84;21348;-85
2021/04/29 07:27:29;;;;;;;7.15;3.92;;;;;;;12.83;52.37;100574.86;1662610;84;21239;-85
2021/04/29 07:30:36;;;;;;;8.28;3.50;;;;;;;12.90;52.54;100563.49;1654397;84;21242;-85
2021/04/29 07:33:42;;;;;;;6.20;3.83;;;;;;;12.94;52.49;100564.83;1668597;84;22319;-85
2021/04/29 07:36:47;;;;;;;4.97;3.52;;;;;;;12.98;53.04;100570.78;1694086;83;21266;-87
2021/04/29 07:39:57;;;;;;;9.23;4.12;;;;;;;13.11;53.75;100570.16;1663138;86;21355;-86
2021/04/29 07:43:03;;;;;;;7.30;3.67;;;;;;;13.25;54.47;100568.83;1680168;85;21301;-86
2021/04/29 07:46:09;;;;;;;10.72;3.37;;;;;;;13.36;54.99;100567.55;1699139;82;21679;-86
2021/04/29 07:49:16;;;;;;;8.78;4.30;;;;;;;13.41;53.34;100560.95;1690356;83;21220;-86
2021/04/29 07:52:22;;;;;;;9.35;3.90;;;;;;;13.39;54.79;100584.16;1697849;83;21835;-85
2021/04/29 07:55:28;;;;;;;10.05;3.72;;;;;;;13.42;52.53;100572.27;1695046;84;21319;-87
2021/04/29 07:58:33;;;;;;;9.95;4.72;;;;;;;13.46;53.27;100569.48;1697885;83;21331;-87
2021/04/29 08:01:38;;;;;;;8.63;4.45;;;;;;;13.49;52.58;100566.86;1698389;83;21203;-86
2021/04/29 08:04:43;;;;;;;7.10;4.40;;;;;;;13.55;53.76;100566.98;1665118;84;21336;-86
2021/04/29 08:07:51;;;;;;;7.92;4.60;;;;;;;13.64;54.15;100542.97;1692561;83;21237;-86
2021/04/29 08:10:57;;;;;;;7.17;4.75;;;;;;;13.73;55.30;100549.22;1680033;84;21277;-87
2021/04/29 08:14:02;;;;;;;9.48;5.15;;;;;;;13.83;55.48;100545.66;1663659;86;21283;-85
2021/04/29 08:17:06;;;;;;;8.25;4.97;;;;;;;13.89;55.55;100544.05;1667100;84;21306;-86
2021/04/29 08:20:14;;;;;;;9.15;5.00;;;;;;;13.92;55.20;100554.66;1701225;83;21283;-86
2021/04/29 08:23:19;;;;;;;9.58;4.85;;;;;;;13.86;54.35;100552.16;1698972;83;21670;-86
2021/04/29 08:26:24;;;;;;;10.32;5.62;;;;;;;13.78;55.02;100545.37;1661837;84;21345;-86
2021/04/29 08:29:31;;;;;;;6.37;4.75;;;;;;;13.81;55.69;100549.13;1684814;83;21173;-86
2021/04/29 08:32:37;;;;;;;6.55;4.80;;;;;;;13.87;54.58;100548.35;1684242;83;21272;-86
2021/04/29 08:35:43;;;;;;;8.15;4.95;;;;;;;13.93;54.74;100533.86;1690824;83;21678;-83
2021/04/29 08:38:49;;;;;;;11.18;5.08;;;;;;;13.96;55.58;100534.83;1686456;85;21248;-82
2021/04/29 08:41:55;;;;;;;7.62;4.55;;;;;;;13.89;55.03;100531.16;1667452;85;22162;-82
2021/04/29 08:45:02;;;;;;;10.30;4.85;;;;;;;13.92;55.63;100534.88;1688074;83;21288;-83
2021/04/29 08:48:08;;;;;;;12.75;5.12;;;;;;;14.08;55.86;100526.09;1682265;85;21185;-82
2021/04/29 08:51:14;;;;;;;11.10;5.30;;;;;;;14.24;54.89;100524.46;1683474;85;21331;-82
2021/04/29 08:54:20;;;;;;;8.73;5.75;;;;;;;14.26;55.78;100519.63;1669194;85;21878;-83
2021/04/29 08:57:25;;;;;;;9.00;5.42;;;;;;;14.21;55.37;100523.47;1687851;83;21335;-82
2021/04/29 09:00:32;;;;;;;9.83;5.33;;;;;;;14.13;54.43;100513.98;1677907;85;22239;-82
2021/04/29 09:03:41;;;;;;;7.50;4.75;;;;;;;14.13;55.83;100513.98;1675439;84;21306;-83
2021/04/29 09:06:48;;;;;;;8.73;4.80;;;;;;;14.29;55.63;100516.47;1677993;85;21300;-83
2021/04/29 09:09:54;;;;;;;7.53;5.00;;;;;;;14.36;55.01;100524.29;1676644;85;21327;-83
2021/04/29 09:13:00;;;;;;;7.30;4.50;;;;;;;14.32;55.00;100514.72;1682423;83;21209;-82
2021/04/29 09:16:17;;;;;;;10.58;5.17;;;;;;;14.42;56.22;100507.52;1680266;83;21275;-83
2021/04/29 09:19:34;;;;;;;8.88;4.65;;;;;;;14.64;54.44;100508.40;1672103;85;21268;-82
2021/04/29 09:22:40;;;;;;;7.05;5.25;;;;;;;14.78;53.80;100510.22;1684579;83;21192;-82
2021/04/29 09:25:47;;;;;;;8.73;4.30;;;;;;;14.79;53.84;100510.00;1693799;81;21279;-82
2021/04/29 09:29:00;;;;;;;7.72;4.87;;;;;;;14.72;53.98;100506.86;1728090;81;21196;-82
2021/04/29 09:32:07;;;;;;;9.70;4.62;;;;;;;14.73;54.07;100498.95;1726401;81;21338;-82
2021/04/29 09:35:16;;;;;;;12.43;5.50;;;;;;;14.77;53.89;100498.84;1723260;81;21298;-82
2021/04/29 09:38:21;;;;;;;6.45;4.35;;;;;;;14.79;55.45;100498.99;1713942;83;21773;-82
2021/04/29 09:41:32;;;;;;;11.38;4.47;;;;;;;14.86;53.34;100493.52;1720468;83;21290;-82
2021/04/29 09:44:42;;;;;;;12.25;5.03;;;;;;;14.88;53.97;100491.97;1718544;83;21263;-82
2021/04/29 09:47:48;;;;;;;9.05;4.53;;;;;;;14.88;53.38;100488.69;1737608;81;21767;-82
2021/04/29 09:50:52;;;;;;;11.38;4.75;;;;;;;14.93;53.90;100482.58;1733284;81;21173;-82
2021/04/29 09:53:58;;;;;;;5.78;4.33;;;;;;;15.03;55.58;100480.31;1716256;83;21321;-82
2021/04/29 09:57:08;;;;;;;7.50;4.47;;;;;;;15.15;52.99;100481.47;1713560;81;21302;-82
2021/04/29 10:00:15;;;;;;;11.68;4.83;;;;;;;15.17;53.60;100475.22;1719121;81;21295;-81
2021/04/29 10:03:22;;;;;;;10.13;5.10;;;;;;;15.19;52.38;100467.59;1740011;81;21310;-82
2021/04/29 10:06:28;;;;;;;7.92;5.25;;;;;;;15.26;51.25;100465.73;1720451;81;21276;-82
2021/04/29 10:09:37;;;;;;;7.80;4.72;;;;;;;15.24;51.73;100461.47;1717853;83;21268;-82
2021/04/29 10:12:43;;;;;;;10.65;5.50;;;;;;;15.09;50.77;100452.80;1722625;81;21287;-82
2021/04/29 10:15:59;;;;;;;10.40;4.33;;;;;;;15.05;52.09;100461.67;1701902;83;21157;-82
2021/04/29 10:19:07;;;;;;;10.28;4.60;;;;;;;15.06;52.08;100458.73;1704017;81;21290;-81
2021/04/29 10:22:16;;;;;;;10.38;5.03;;;;;;;15.03;52.99;100452.23;1700846;83;21184;-81
2021/04/29 10:25:22;;;;;;;10.82;5.08;;;;;;;15.01;51.43;100443.87;1714881;81;21343;-82
2021/04/29 10:28:44;;;;;;;8.75;5.00;;;;;;;15.05;52.85;100439.63;1701122;83;21849;-82
2021/04/29 10:31:50;;;;;;;9.43;4.40;;;;;;;15.28;52.98;100433.83;1699847;83;21204;-82
2021/04/29 10:34:58;;;;;;;8.93;4.03;;;;;;;15.45;52.30;100433.81;1724326;81;21279;-82
2021/04/29 10:38:10;;;;;;;8.18;3.62;;;;;;;15.52;50.63;100432.45;1721044;81;21296;-82
2021/04/29 10:41:27;;;;;;;7.58;3.92;;;;;;;15.56;50.91;100424.10;1701130;82;21849;-82
2021/04/29 10:44:34;;;;;;;7.97;3.75;;;;;;;15.53;50.59;100417.64;1704571;82;21136;-82
2021/04/29 10:47:41;;;;;;;7.25;4.67;;;;;;;15.46;50.87;100416.22;1726107;81;21269;-81
2021/04/29 10:50:55;;;;;;;12.70;4.17;;;;;;;15.41;51.23;100415.98;1724803;81;21797;-81
2021/04/29 10:54:01;;;;;;;9.73;5.17;;;;;;;15.47;50.64;100417.06;1725692;82;21306;-82
2021/04/29 10:57:16;;;;;;;7.53;3.87;;;;;;;15.50;50.35;100405.11;1721105;83;21172;-81
2021/04/29 11:00:23;;;;;;;13.40;3.80;;;;;;;15.53;50.10;100399.19;1724106;82;21256;-82
2021/04/29 11:03:52;;;;;;;9.08;4.95;;;;;;;15.65;51.94;100391.19;1728146;82;21810;-81
2021/04/29 11:06:56;;;;;;;6.50;3.52;;;;;;;15.89;51.19;100388.38;1726925;82;22081;-82
2021/04/29 11:10:16;;;;;;;6.20;3.92;;;;;;;16.14;48.74;100378.12;1698742;83;21330;-82
2021/04/29 11:13:27;;;;;;;;;;;;;;;16.24;49.10;100383.56;1637319;86;21354;-82
2021/04/29 11:16:32;;;;;;;;;;;;;;;16.22;49.22;100381.52;1691719;83;20209;-82
2021/04/29 11:19:52;;;;;;;14.80;4.83;;;;;;;16.21;48.99;100380.37;1661196;84;20260;-81
2021/04/29 11:23:02;;;;;;;11.88;5.37;;;;;;;16.19;48.04;100372.31;1690129;83;21339;-82
2021/04/29 11:26:20;;;;;;;11.88;4.85;;;;;;;16.15;47.58;100366.05;1690514;83;21861;-82
2021/04/29 11:29:27;;;;;;;12.68;6.20;;;;;;;16.20;48.41;100366.26;1703218;82;21864;-82
2021/04/29 11:32:34;;;;;;;7.53;4.20;;;;;;;16.38;47.76;100365.09;1686997;84;21307;-82
2021/04/29 11:35:45;;;;;;;7.92;3.92;;;;;;;16.51;47.56;100358.69;1669515;84;21289;-82
2021/04/29 11:39:03;;;;;;;8.80;3.67;;;;;;;16.61;48.23;100355.83;1659890;85;21205;-82
2021/04/29 11:42:09;;;;;;;6.65;3.83;;;;;;;16.71;46.18;100349.02;1733259;81;21240;-82
2021/04/29 11:45:20;;;;;;;7.30;3.55;;;;;;;16.78;45.94;100354.02;1715685;82;21358;-82
2021/04/29 11:48:33;;;;;;;5.55;3.52;;;;;;;16.80;46.78;100351.37;1701730;82;21692;-82
2021/04/29 11:51:39;;;;;;;11.05;4.55;;;;;;;16.73;45.75;100340.85;1713241;83;21812;-82
2021/04/29 11:54:55;;;;;;;12.35;5.80;;;;;;;16.72;46.75;100335.55;1723360;82;21827;-81
2021/04/29 11:58:18;;;;;;;22.40;8.78;;;;;;;16.85;46.04;100336.91;1723062;82;21279;-82
2021/04/29 12:01:24;;;;;;;17.12;7.60;;;;;;;16.93;45.59;100338.56;1701028;83;21267;-82
2021/04/29 12:04:31;;;;;;;18.30;8.25;;;;;;;16.94;45.42;100327.83;1691677;84;21865;-82
2021/04/29 12:07:50;;;;;;;11.18;6.42;;;;;;;16.97;45.42;100324.64;1698700;83;21197;-82
2021/04/29 12:11:13;;;;;;;12.18;4.37;;;;;;;17.03;46.96;100320.99;1701851;83;21776;-82
2021/04/29 12:14:33;;;;;;;9.68;4.35;;;;;;;17.07;45.93;100325.02;1700011;83;21282;-82
2021/04/29 12:17:42;;;;;;;7.65;4.17;;;;;;;17.08;47.61;100330.35;1692298;84;21762;-82
2021/04/29 12:20:49;;;;;;;11.55;4.53;;;;;;;17.12;47.05;100334.88;1675801;84;21814;-82
2021/04/29 12:24:06;;;;;;;10.90;5.25;;;;;;;17.08;46.66;100327.59;1692359;83;21279;-82
2021/04/29 12:27:27;;;;;;;12.25;6.12;;;;;;;16.94;46.71;100323.68;1667201;85;21322;-82
2021/04/29 12:30:35;;;;;;;17.30;7.20;;;;;;;16.80;47.18;100324.28;1688363;84;21169;-82
2021/04/29 12:33:41;;;;;;;15.20;6.87;;;;;;;16.69;47.38;100324.89;1673431;84;21848;-82
2021/04/29 12:37:03;;;;;;;12.88;6.70;;;;;;;16.67;47.61;100320.13;1725704;82;21263;-82
2021/04/29 12:40:08;;;;;;;11.22;6.67;;;;;;;16.66;48.68;100322.05;1726430;82;21841;-82
2021/04/29 12:43:24;;;;;;;14.50;6.22;;;;;;;16.67;48.99;100314.61;1732188;81;21156;-82
2021/04/29 12:46:46;;;;;;;15.78;7.28;;;;;;;16.73;49.33;100312.39;1716273;82;21259;-82
2021/04/29 12:49:52;;;;;;;16.97;5.17;;;;;;;16.78;50.30;100312.05;1701866;81;21827;-82
2021/04/29 12:52:59;;;;;;;10.60;5.95;;;;;;;16.82;50.10;100306.95;1705427;82;21280;-82
2021/04/29 12:56:05;;;;;;;13.80;6.50;;;;;;;16.81;49.36;100310.24;1720581;82;21810;-82
2021/04/29 12:59:23;;;;;;;13.78;6.55;;;;;;;16.76;49.08;100314.20;1720446;82;21209;-82
2021/04/29 13:02:33;;;;;;;16.90;7.97;;;;;;;16.72;49.02;100303.80;1717598;81;21205;-82
2021/04/29 13:05:39;;;;;;;20.23;6.90;;;;;;;16.69;49.21;100302.80;1718159;82;21288;-81
2021/04/29 13:09:07;;;;;;;8.60;5.00;;;;;;;16.72;50.31;100299.12;1703002;82;21874;-82
2021/04/29 13:12:22;;;;;;;16.73;5.60;;;;;;;16.76;50.58;100299.00;1691219;81;21323;-82
2021/04/29 13:15:33;;;;;;;19.35;6.60;;;;;;;16.76;50.54;100295.39;1719555;81;21318;-82
2021/04/29 13:18:39;;;;;;;13.13;4.90;;;;;;;16.79;51.03;100295.78;1722572;83;21299;-82
2021/04/29 13:21:45;;;;;;;7.45;4.10;;;;;;;16.86;50.03;100293.86;1716141;82;21606;-82
2021/04/29 13:24:53;;;;;;;8.75;3.30;;;;;;;16.91;49.92;100293.75;1708074;82;21279;-82
2021/04/29 13:28:00;;;;;;;7.15;4.67;;;;;;;16.90;49.67;100288.76;1718230;82;21835;-82
2021/04/29 13:31:06;;;;;;;10.72;4.95;;;;;;;16.85;50.82;100282.50;1696253;83;21225;-82
2021/04/29 13:34:14;;;;;;;7.08;3.47;;;;;;;16.81;50.59;100289.53;1695163;84;21599;-82
2021/04/29 13:37:21;;;;;;;9.38;4.45;;;;;;;16.79;50.85;100285.27;1663428;86;21864;-82
2021/04/29 13:40:27;;;;;;;7.62;3.52;;;;;;;16.78;50.12;100283.58;1663672;86;21315;-82
2021/04/29 13:43:26;;;;;;;7.45;3.58;;;;;;;16.73;50.19;100287.00;1663792;86;21909;-82
2021/04/29 13:46:21;;;;;;;12.63;4.30;;;;;;;16.59;50.57;100280.63;1664400;86;21334;-82
2021/04/29 13:49:27;;;;;;;10.43;3.70;;;;;;;16.47;50.81;100278.77;1662014;86;21334;-82
2021/04/29 13:52:33;;;;;;;8.30;3.70;;;;;;;16.43;51.44;100279.72;1664215;86;21805;-82
2021/04/29 13:55:41;;;;;;;5.55;3.15;;;;;;;16.51;50.76;100283.61;1664076;86;21306;-81
2021/04/29 13:58:48;;;;;;;7.08;3.02;;;;;;;16.56;49.95;100278.82;1662425;86;21928;-82
2021/04/29 14:01:54;;;;;;;4.60;3.25;;;;;;;16.55;49.89;100275.22;1664322;86;21831;-82
2021/04/29 14:05:00;;;;;;;6.28;2.90;;;;;;;16.53;50.77;100270.99;1664124;86;21247;-81
2021/04/29 14:08:06;;;;;;;8.75;3.30;;;;;;;16.48;51.77;100275.78;1664058;85;21318;-82
2021/04/29 14:11:12;;;;;;;10.65;3.20;;;;;;;16.42;50.42;100273.89;1664612;86;21311;-82
2021/04/29 14:14:18;;;;;;;13.25;3.17;;;;;;;16.38;51.18;100274.00;1664484;86;21196;-82
2021/04/29 14:17:24;;;;;;;7.00;2.92;;;;;;;16.35;51.93;100273.89;1664350;86;21342;-82
2021/04/29 14:20:30;;;;;;;5.08;3.45;;;;;;;16.33;51.57;100273.27;1664525;86;21844;-82
2021/04/29 14:23:36;;;;;;;7.62;2.70;;;;;;;16.25;50.36;100276.24;1664495;86;21255;-82
2021/04/29 14:26:42;;;;;;;6.17;3.08;;;;;;;16.19;50.84;100274.88;1664025;86;21223;-82
2021/04/29 14:29:47;;;;;;;9.98;3.02;;;;;;;16.10;51.39;100273.72;1664554;86;21306;-82